Main page
METAR-TAF:

METAR-TAF

Airports :

Montpellier–Méditerranée Airport

Montpellier, France

latitude: 43-35N, longitude: 003-58E, elevation: 5 m

Current weather observation

The report was made 23 minutes ago, at 08:00 UTC
Wind 16 kt from the North
Temperature 13°C
Humidity 38%
Pressure 1017 hPa
Visibility 10 km or more
no clouds below 1500 m and no cumulonimbus

METAR: LFMT 210800Z AUTO 01016KT CAVOK 13/M01 Q1017 NOSIG

Time: 10:23 (08:23 UTC)

Forecast

The report was made 6 hours and 23 minutes ago, at 02:00 UTC
Forecast valid from 21 at 03 UTC to 22 at 03 UTC
Wind 8 kt from the North/Northwest
Visibility 10 km or more
no clouds below 1500 m and no cumulonimbus
Becoming
from 21 at 10 UTC to 21 at 12 UTC
Wind 10 kt from the South
Becoming
from 21 at 15 UTC to 21 at 17 UTC
Wind 20 kt from the North/Northeast with gusts up to 30 kt
Becoming
from 21 at 21 UTC to 21 at 23 UTC
Wind 10 kt from the North/Northwest

TAF: LFMT 210200Z 2103/2203 34008KT CAVOK BECMG 2110/2112 19010KT BECMG 2115/2117 02020G30KT BECMG 2121/2123 34010KT

Weather observations and forecasts of more than 4000 airports (METAR and TAF reports).

The available stations are represented by yellow and red dots on the map.

Hover mouse over dot to see the name of the station.

Then click to see weather observations and forecasts.

To change the map : click on the green buttons with a black cross to zoom in, on the green button with a dash to zoom out, or on the green arrows for adjacent maps.


METAR-TAF: